createdAt,value
2017-10-05T00:03:29.880Z,2.90
2017-10-05T00:08:31.669Z,3.40
2017-10-05T00:13:33.591Z,3.20
2017-10-05T00:18:36.632Z,2.87
2017-10-05T00:23:39.617Z,3.17
2017-10-05T00:28:41.545Z,3.10
2017-10-05T00:33:43.424Z,3.30
2017-10-05T00:38:45.277Z,3.00
2017-10-05T00:43:49.893Z,2.87
2017-10-05T00:48:51.714Z,3.10
2017-10-05T00:53:54.296Z,2.90
2017-10-05T00:58:56.394Z,3.13
2017-10-05T01:03:58.249Z,3.43
2017-10-05T01:09:00.953Z,3.33
2017-10-05T01:14:02.846Z,3.40
2017-10-05T01:19:04.772Z,3.50
2017-10-05T01:24:06.780Z,3.07
2017-10-05T01:29:08.660Z,2.87
2017-10-05T01:34:11.188Z,3.47
2017-10-05T01:39:12.976Z,3.53
2017-10-05T01:44:15.724Z,3.43
2017-10-05T01:49:18.926Z,3.10
2017-10-05T01:54:21.338Z,3.23
2017-10-05T01:59:23.143Z,3.50
2017-10-05T02:04:25.920Z,3.23
2017-10-05T02:09:28.618Z,3.40
2017-10-05T02:14:30.495Z,3.40
2017-10-05T02:19:32.999Z,3.80
2017-10-05T02:24:36.503Z,3.60
2017-10-05T02:29:38.483Z,3.33
2017-10-05T02:34:41.740Z,3.00
2017-10-05T02:39:58.415Z,3.37
2017-10-05T02:45:17.886Z,3.27
2017-10-05T02:50:37.426Z,3.50
2017-10-05T02:55:56.633Z,3.40
2017-10-05T03:01:17.321Z,3.67
2017-10-05T03:06:37.253Z,3.53
2017-10-05T03:11:57.674Z,4.27
2017-10-05T03:17:18.749Z,3.73
2017-10-05T03:22:23.383Z,3.47
2017-10-05T03:27:25.467Z,3.30
2017-10-05T03:32:28.535Z,3.30
2017-10-05T03:37:30.385Z,4.17
2017-10-05T03:42:33.585Z,3.30
2017-10-05T03:47:35.535Z,3.70
2017-10-05T03:52:38.183Z,4.37
2017-10-05T03:57:41.020Z,3.20
2017-10-05T04:02:42.868Z,3.80
2017-10-05T04:07:44.756Z,3.50
2017-10-05T04:12:47.237Z,3.40
2017-10-05T04:17:49.799Z,3.43
2017-10-05T04:22:52.728Z,3.63
2017-10-05T04:27:54.471Z,3.30
2017-10-05T04:32:57.216Z,3.47
2017-10-05T04:37:59.051Z,3.70
2017-10-05T04:43:00.873Z,3.00
2017-10-05T04:48:04.216Z,3.00
2017-10-05T04:53:06.363Z,3.07
2017-10-05T04:58:08.475Z,3.43
2017-10-05T05:03:11.374Z,3.10
2017-10-05T05:08:13.224Z,2.63
2017-10-05T05:13:15.131Z,2.30
2017-10-05T05:18:16.983Z,3.00
2017-10-05T05:23:18.732Z,3.17
2017-10-05T05:28:20.632Z,2.63
2017-10-05T05:33:23.300Z,3.03
2017-10-05T05:38:25.183Z,3.30
2017-10-05T05:43:27.113Z,3.03
2017-10-05T05:48:29.588Z,3.27
2017-10-05T05:53:31.423Z,3.53
2017-10-05T05:58:33.358Z,3.50
2017-10-05T06:03:35.223Z,3.70
2017-10-05T06:08:37.784Z,6.50
2017-10-05T06:13:39.810Z,7.50
2017-10-05T06:18:41.828Z,6.70
2017-10-05T06:23:43.636Z,8.40
2017-10-05T06:28:45.545Z,6.80
2017-10-05T06:33:48.719Z,4.90
2017-10-05T06:38:50.504Z,4.43
2017-10-05T06:43:52.376Z,3.57
2017-10-05T06:48:54.287Z,2.80
2017-10-05T06:53:56.161Z,2.80
2017-10-05T06:58:58.141Z,3.00
2017-10-05T07:03:59.999Z,3.00
2017-10-05T07:09:01.895Z,3.50
2017-10-05T07:14:06.393Z,3.17
2017-10-05T07:19:08.284Z,3.53
2017-10-05T07:24:10.191Z,2.93
2017-10-05T07:29:12.658Z,3.43
2017-10-05T07:34:14.457Z,3.03
2017-10-05T07:39:17.154Z,3.07
2017-10-05T07:44:20.641Z,3.03
2017-10-05T07:49:23.103Z,3.47
2017-10-05T07:54:25.041Z,3.07
2017-10-05T07:59:26.918Z,3.10
2017-10-05T08:04:28.796Z,3.07
2017-10-05T08:09:30.620Z,3.20
2017-10-05T08:14:32.548Z,2.47
2017-10-05T08:19:34.510Z,2.80
2017-10-05T08:24:36.761Z,2.60
2017-10-05T08:29:39.174Z,1.80
2017-10-05T08:34:40.981Z,1.87
2017-10-05T08:39:43.277Z,1.77
2017-10-05T08:44:45.065Z,1.50
2017-10-05T08:49:46.890Z,1.70
2017-10-05T08:54:48.720Z,1.77
2017-10-05T08:59:51.080Z,1.80
2017-10-05T09:04:54.436Z,1.70
2017-10-05T09:09:56.876Z,1.70
2017-10-05T09:14:58.865Z,1.73
2017-10-05T09:20:00.860Z,1.80
2017-10-05T09:25:02.743Z,1.60
2017-10-05T09:30:04.572Z,1.70
2017-10-05T09:35:06.680Z,1.50
2017-10-05T09:40:08.485Z,1.80
2017-10-05T09:45:11.051Z,1.57
2017-10-05T09:50:12.904Z,1.70
2017-10-05T09:55:14.723Z,2.03
2017-10-05T10:00:16.890Z,1.73
2017-10-05T10:05:18.768Z,1.77
2017-10-05T10:10:20.747Z,1.70
2017-10-05T10:15:23.546Z,1.87
2017-10-05T10:20:27.022Z,1.97
2017-10-05T10:25:30.986Z,1.60
2017-10-05T10:30:32.836Z,2.03
2017-10-05T10:35:34.641Z,2.50
2017-10-05T10:40:36.517Z,1.80
2017-10-05T10:45:39.659Z,1.67
2017-10-05T10:50:41.500Z,2.10
2017-10-05T10:55:43.296Z,1.80
2017-10-05T11:00:45.869Z,1.87
2017-10-05T11:05:47.724Z,1.80
2017-10-05T11:10:50.296Z,2.20
2017-10-05T11:15:52.730Z,2.73
2017-10-05T11:20:54.640Z,1.80
2017-10-05T11:25:57.133Z,2.20
2017-10-05T11:30:59.695Z,2.10
2017-10-05T11:36:01.578Z,2.40
2017-10-05T11:41:03.453Z,1.87
2017-10-05T11:46:05.508Z,1.83
2017-10-05T11:51:07.408Z,2.03
2017-10-05T11:56:10.207Z,1.87
2017-10-05T12:01:12.016Z,1.87
2017-10-05T12:06:14.986Z,2.00
2017-10-05T12:11:16.863Z,1.97
2017-10-05T12:16:19.428Z,1.87
2017-10-05T12:21:22.442Z,2.10
2017-10-05T12:26:25.829Z,1.77
2017-10-05T12:31:27.751Z,2.00
2017-10-05T12:36:29.630Z,2.20
2017-10-05T12:41:31.506Z,2.73
2017-10-05T12:46:33.315Z,2.40
2017-10-05T12:51:36.081Z,3.37
2017-10-05T12:56:38.574Z,2.47
2017-10-05T13:01:40.384Z,2.97
2017-10-05T13:06:42.943Z,2.53
2017-10-05T13:11:44.752Z,2.90
2017-10-05T13:16:48.131Z,3.00
2017-10-05T13:21:49.976Z,3.50
2017-10-05T13:26:51.816Z,3.10
2017-10-05T13:31:53.704Z,4.50
2017-10-05T13:36:56.929Z,3.57
2017-10-05T13:41:58.746Z,3.53
2017-10-05T13:47:01.648Z,3.60
2017-10-05T13:52:03.942Z,3.80
2017-10-05T13:57:06.787Z,3.90
2017-10-05T14:02:08.714Z,3.30
2017-10-05T14:07:10.591Z,3.00
2017-10-05T14:12:12.961Z,3.57
2017-10-05T14:17:15.247Z,2.80
2017-10-05T14:22:17.045Z,3.37
2017-10-05T14:27:18.920Z,3.17
2017-10-05T14:32:21.076Z,2.30
2017-10-05T14:37:22.982Z,1.90
2017-10-05T14:42:25.307Z,1.60
2017-10-05T14:47:27.124Z,2.77
2017-10-05T14:52:29.845Z,1.70
2017-10-05T14:57:31.927Z,2.07
2017-10-05T15:02:34.360Z,1.90
2017-10-05T15:07:37.114Z,2.10
2017-10-05T15:12:38.911Z,2.00
2017-10-05T15:17:41.415Z,1.67
2017-10-05T15:22:43.948Z,1.50
2017-10-05T15:27:46.296Z,2.00
2017-10-05T15:32:48.833Z,2.77
2017-10-05T15:37:50.734Z,9.33
2017-10-05T15:42:52.710Z,3.53
2017-10-05T15:47:55.064Z,4.70
2017-10-05T15:52:56.796Z,3.10
2017-10-05T15:58:00.567Z,2.20
2017-10-05T16:03:02.578Z,2.10
2017-10-05T16:08:04.380Z,2.47
2017-10-05T16:13:07.562Z,2.10
2017-10-05T16:18:10.339Z,2.77
2017-10-05T16:23:13.329Z,1.40
2017-10-05T16:28:15.242Z,2.00
2017-10-05T16:33:17.100Z,3.53
2017-10-05T16:38:18.997Z,2.23
2017-10-05T16:43:21.693Z,2.07
2017-10-05T16:48:24.012Z,1.77
2017-10-05T16:53:25.783Z,1.57
2017-10-05T16:58:28.323Z,1.57
2017-10-05T17:03:30.125Z,1.60
2017-10-05T17:08:32.824Z,1.90
2017-10-05T17:13:34.633Z,2.50
2017-10-05T17:18:37.195Z,2.00
2017-10-05T17:23:39.068Z,2.10
2017-10-05T17:28:40.880Z,1.83
2017-10-05T17:33:42.823Z,3.40
2017-10-05T17:38:46.238Z,5.57
2017-10-05T17:43:48.729Z,4.50
2017-10-05T17:48:53.979Z,3.00
2017-10-05T17:53:56.170Z,2.53
2017-10-05T17:58:58.664Z,2.93
2017-10-05T18:04:00.924Z,2.77
2017-10-05T18:09:04.261Z,2.70
2017-10-05T18:14:06.789Z,3.00
2017-10-05T18:19:08.733Z,6.47
2017-10-05T18:24:11.294Z,4.93
2017-10-05T18:29:13.201Z,6.60
2017-10-05T18:34:15.081Z,8.87
2017-10-05T18:39:17.137Z,7.40
2017-10-05T18:44:19.246Z,8.30
2017-10-05T18:49:22.147Z,8.40
2017-10-05T18:54:24.039Z,8.87
2017-10-05T18:59:25.902Z,13.43
2017-10-05T19:04:27.779Z,14.60
2017-10-05T19:09:29.656Z,16.80
2017-10-05T19:14:31.535Z,15.20
2017-10-05T19:19:36.280Z,14.40
2017-10-05T19:24:38.153Z,13.50
2017-10-05T19:29:40.031Z,10.77
2017-10-05T19:34:41.911Z,7.60
2017-10-05T19:39:43.789Z,7.43
2017-10-05T19:44:46.076Z,5.07
2017-10-05T19:49:49.285Z,5.87
2017-10-05T19:54:53.928Z,5.33
2017-10-05T19:59:55.986Z,26.73
2017-10-05T20:04:57.887Z,5.60
2017-10-05T20:10:01.599Z,4.50
2017-10-05T20:20:54.516Z,4.20
2017-10-05T20:31:39.636Z,5.30
2017-10-05T20:36:42.541Z,5.10
2017-10-05T20:41:44.419Z,5.37
2017-10-05T20:46:46.297Z,4.00
2017-10-05T20:51:48.377Z,3.90
2017-10-05T20:56:50.357Z,4.33
2017-10-05T21:01:52.849Z,5.37
2017-10-05T21:06:54.726Z,4.90
2017-10-05T21:11:58.118Z,4.87
2017-10-05T21:17:00.223Z,5.10
2017-10-05T21:22:02.099Z,4.37
2017-10-05T21:27:03.977Z,4.37
2017-10-05T21:32:05.854Z,5.23
2017-10-05T21:37:07.732Z,5.03
2017-10-05T21:42:10.791Z,5.87
2017-10-05T21:47:13.740Z,3.03
2017-10-05T21:52:15.593Z,2.90
2017-10-05T21:57:17.466Z,2.70
2017-10-05T22:02:19.992Z,3.40
2017-10-05T22:07:22.449Z,2.53
2017-10-05T22:12:24.355Z,3.40
2017-10-05T22:17:27.256Z,3.03
2017-10-05T22:22:30.318Z,3.07
2017-10-05T22:27:32.445Z,3.23
2017-10-05T22:32:34.322Z,3.00
2017-10-05T22:37:36.815Z,3.00
2017-10-05T22:42:38.693Z,3.63
2017-10-05T22:47:40.571Z,3.27
2017-10-05T22:52:43.369Z,2.63
2017-10-05T22:57:45.994Z,2.80
2017-10-05T23:02:49.583Z,3.20
2017-10-05T23:07:51.458Z,3.20
2017-10-05T23:12:53.438Z,3.10
2017-10-05T23:17:56.134Z,3.10
2017-10-05T23:22:58.012Z,3.00
2017-10-05T23:27:59.889Z,2.90
2017-10-05T23:33:02.791Z,2.97
2017-10-05T23:38:05.671Z,3.20
2017-10-05T23:43:08.593Z,3.17
2017-10-05T23:48:12.417Z,3.27
2017-10-05T23:53:14.374Z,3.20
2017-10-05T23:58:16.168Z,2.93
